Time,TemperatureF,DewpointF,PressureIn,WindDirection,WindDirectionDegrees,WindSpeedMPH,WindSpeedGustMPH,Humidity,HourlyPrecipIn,Conditions,Clouds,dailyrainin,SoftwareType,DateUTC
2013-05-08 00:01:00,64.1,58.0,30.09,SSW,198,0.0,2.0,80,0.00,,,0.00,weatherlink.com 1.10,2013-05-08 04:01:00,
2013-05-08 00:16:00,64.2,58.0,30.09,SSW,207,0.0,3.0,80,0.00,,,0.00,weatherlink.com 1.10,2013-05-08 04:16:00,
2013-05-08 00:31:00,64.1,58.0,30.09,SSW,207,0.0,0.0,80,0.00,,,0.00,weatherlink.com 1.10,2013-05-08 04:31:00,
2013-05-08 00:46:00,63.8,58.0,30.09,SSW,207,0.0,0.0,81,0.00,,,0.00,weatherlink.com 1.10,2013-05-08 04:46:00,
2013-05-08 01:01:00,63.8,58.0,30.08,WNW,295,0.0,2.0,82,0.00,,,0.00,weatherlink.com 1.10,2013-05-08 05:01:00,
2013-05-08 01:16:00,63.6,58.0,30.07,SW,235,1.0,2.0,83,0.00,,,0.00,weatherlink.com 1.10,2013-05-08 05:16:00,
2013-05-08 01:31:00,63.5,59.0,30.07,SSW,203,0.0,1.0,84,0.00,,,0.00,weatherlink.com 1.10,2013-05-08 05:31:00,
2013-05-08 01:46:00,63.5,59.0,30.07,SSW,210,0.0,3.0,84,0.00,,,0.00,weatherlink.com 1.10,2013-05-08 05:46:00,
2013-05-08 02:01:00,63.1,59.0,30.06,NW,308,1.0,2.0,86,0.01,,,0.01,weatherlink.com 1.10,2013-05-08 06:01:00,
2013-05-08 02:16:00,62.4,59.0,30.06,WNW,303,0.0,1.0,89,0.05,,,0.05,weatherlink.com 1.10,2013-05-08 06:16:00,
2013-05-08 02:31:00,61.6,58.0,30.06,WNW,302,0.0,2.0,89,0.07,,,0.07,weatherlink.com 1.10,2013-05-08 06:31:00,
2013-05-08 02:46:00,61.1,59.0,30.05,NW,316,0.0,2.0,91,0.09,,,0.09,weatherlink.com 1.10,2013-05-08 06:46:00,
2013-05-08 03:01:00,60.6,58.0,30.05,WSW,247,0.0,2.0,92,0.11,,,0.12,weatherlink.com 1.10,2013-05-08 07:01:00,
2013-05-08 03:16:00,60.3,58.0,30.05,West,264,1.0,3.0,93,0.08,,,0.13,weatherlink.com 1.10,2013-05-08 07:16:00,
2013-05-08 03:32:00,60.7,59.0,30.05,NW,315,1.0,5.0,94,0.16,,,0.24,weatherlink.com 1.10,2013-05-08 07:32:00,
2013-05-08 03:47:00,60.6,59.0,30.05,West,263,0.0,1.0,94,0.21,,,0.30,weatherlink.com 1.10,2013-05-08 07:47:00,
2013-05-08 04:02:00,60.3,59.0,30.05,WNW,302,1.0,2.0,94,0.23,,,0.35,weatherlink.com 1.10,2013-05-08 08:02:00,
2013-05-08 04:17:00,59.5,58.0,30.04,WSW,252,1.0,2.0,94,0.25,,,0.38,weatherlink.com 1.10,2013-05-08 08:17:00,
2013-05-08 04:32:00,59.3,58.0,30.03,WSW,246,0.0,1.0,95,0.13,,,0.38,weatherlink.com 1.10,2013-05-08 08:32:00,
2013-05-08 04:47:00,59.5,58.0,30.03,West,264,2.0,3.0,95,0.09,,,0.40,weatherlink.com 1.10,2013-05-08 08:47:00,
2013-05-08 05:02:00,59.5,58.0,30.03,West,260,0.0,1.0,95,0.08,,,0.43,weatherlink.com 1.10,2013-05-08 09:02:00,
2013-05-08 05:17:00,59.4,58.0,30.03,NW,321,0.0,2.0,95,0.05,,,0.43,weatherlink.com 1.10,2013-05-08 09:17:00,
2013-05-08 05:32:00,59.3,58.0,30.04,WSW,255,1.0,2.0,95,0.05,,,0.43,weatherlink.com 1.10,2013-05-08 09:32:00,
2013-05-08 05:47:00,59.4,58.0,30.04,WNW,297,0.0,2.0,95,0.04,,,0.44,weatherlink.com 1.10,2013-05-08 09:47:00,
2013-05-08 06:02:00,59.3,58.0,30.05,NNW,344,0.0,2.0,95,0.04,,,0.47,weatherlink.com 1.10,2013-05-08 10:02:00,
2013-05-08 06:17:00,59.2,58.0,30.05,WNW,300,1.0,1.0,95,0.10,,,0.53,weatherlink.com 1.10,2013-05-08 10:17:00,
2013-05-08 06:32:00,59.0,58.0,30.05,NW,317,0.0,4.0,96,0.14,,,0.57,weatherlink.com 1.10,2013-05-08 10:32:00,
2013-05-08 06:47:00,58.9,58.0,30.06,WSW,251,0.0,3.0,96,0.15,,,0.59,weatherlink.com 1.10,2013-05-08 10:47:00,
2013-05-08 07:02:00,58.8,58.0,30.07,SW,235,0.0,2.0,96,0.15,,,0.62,weatherlink.com 1.10,2013-05-08 11:02:00,
2013-05-08 07:17:00,58.7,58.0,30.06,NW,314,2.0,3.0,96,0.17,,,0.70,weatherlink.com 1.10,2013-05-08 11:17:00,
2013-05-08 07:32:00,58.6,58.0,30.05,NNW,340,1.0,2.0,96,0.19,,,0.76,weatherlink.com 1.10,2013-05-08 11:32:00,
2013-05-08 07:47:00,58.6,58.0,30.06,WSW,252,1.0,3.0,96,0.26,,,0.85,weatherlink.com 1.10,2013-05-08 11:47:00,
2013-05-08 08:02:00,58.8,58.0,30.07,SSW,198,2.0,2.0,96,0.40,,,1.02,weatherlink.com 1.10,2013-05-08 12:02:00,
2013-05-08 08:17:00,59.2,58.0,30.06,SW,218,0.0,1.0,96,0.46,,,1.17,weatherlink.com 1.10,2013-05-08 12:17:00,
2013-05-08 08:32:00,59.1,58.0,30.05,NW,315,0.0,1.0,96,0.51,,,1.28,weatherlink.com 1.10,2013-05-08 12:32:00,
2013-05-08 08:47:00,58.7,58.0,30.06,West,266,0.0,2.0,96,0.62,,,1.47,weatherlink.com 1.10,2013-05-08 12:47:00,
2013-05-08 09:02:00,58.8,58.0,30.05,WSW,249,0.0,5.0,96,0.46,,,1.49,weatherlink.com 1.10,2013-05-08 13:02:00,
2013-05-08 09:17:00,59.0,58.0,30.06,West,281,1.0,3.0,96,0.31,,,1.49,weatherlink.com 1.10,2013-05-08 13:17:00,
2013-05-08 09:32:00,59.5,58.0,30.05,West,271,1.0,4.0,96,0.21,,,1.49,weatherlink.com 1.10,2013-05-08 13:32:00,
2013-05-08 09:47:00,60.2,59.0,30.05,WSW,242,1.0,4.0,96,0.01,,,1.49,weatherlink.com 1.10,2013-05-08 13:47:00,
2013-05-08 10:02:00,61.0,60.0,30.04,WSW,257,0.0,3.0,95,0.00,,,1.49,weatherlink.com 1.10,2013-05-08 14:02:00,
2013-05-08 10:17:00,61.8,60.0,30.04,WSW,255,2.0,5.0,92,0.00,,,1.49,weatherlink.com 1.10,2013-05-08 14:17:00,
2013-05-08 10:32:00,64.1,61.0,30.05,West,266,2.0,3.0,88,0.00,,,1.49,weatherlink.com 1.10,2013-05-08 14:32:00,
2013-05-08 10:47:00,63.7,60.0,30.05,WNW,294,2.0,6.0,86,0.00,,,1.49,weatherlink.com 1.10,2013-05-08 14:47:00,
2013-05-08 11:02:00,65.8,61.0,30.04,WSW,240,0.0,5.0,84,0.00,,,1.49,weatherlink.com 1.10,2013-05-08 15:02:00,
2013-05-08 11:17:00,65.8,61.0,30.04,SW,230,1.0,5.0,84,0.00,,,1.49,weatherlink.com 1.10,2013-05-08 15:17:00,
2013-05-08 11:32:00,66.0,61.0,30.02,SW,228,1.0,6.0,84,0.00,,,1.49,weatherlink.com 1.10,2013-05-08 15:32:00,
2013-05-08 11:47:00,65.6,62.0,30.02,WSW,248,1.0,4.0,87,0.02,,,1.51,weatherlink.com 1.10,2013-05-08 15:47:00,
2013-05-08 12:02:00,66.1,62.0,30.00,NW,326,3.0,4.0,85,0.02,,,1.51,weatherlink.com 1.10,2013-05-08 16:02:00,
2013-05-08 12:17:00,67.3,62.0,29.98,WNW,290,4.0,7.0,83,0.02,,,1.51,weatherlink.com 1.10,2013-05-08 16:17:00,
2013-05-08 12:31:00,65.0,61.0,29.98,NNW,345,3.0,5.0,87,0.04,,,1.53,weatherlink.com 1.10,2013-05-08 16:31:00,
2013-05-08 12:46:00,63.2,60.0,29.99,West,263,1.0,3.0,90,0.05,,,1.56,weatherlink.com 1.10,2013-05-08 16:46:00,
2013-05-08 13:01:00,62.3,60.0,29.99,West,271,1.0,5.0,93,0.11,,,1.62,weatherlink.com 1.10,2013-05-08 17:01:00,
2013-05-08 13:16:00,62.1,60.0,30.00,WNW,295,0.0,4.0,94,0.13,,,1.64,weatherlink.com 1.10,2013-05-08 17:16:00,
2013-05-08 13:31:00,62.3,61.0,30.00,SSW,208,0.0,0.0,95,0.12,,,1.65,weatherlink.com 1.10,2013-05-08 17:31:00,
2013-05-08 13:46:00,61.8,60.0,29.99,SSW,200,3.0,5.0,95,0.09,,,1.65,weatherlink.com 1.10,2013-05-08 17:46:00,
2013-05-08 14:01:00,61.0,60.0,29.99,South,191,0.0,4.0,95,0.03,,,1.65,weatherlink.com 1.10,2013-05-08 18:01:00,
2013-05-08 14:16:00,60.7,59.0,29.98,SSW,194,3.0,7.0,95,0.01,,,1.65,weatherlink.com 1.10,2013-05-08 18:16:00,
2013-05-08 14:32:00,61.1,60.0,29.98,SSW,210,0.0,4.0,96,0.00,,,1.65,weatherlink.com 1.10,2013-05-08 18:32:00,
2013-05-08 14:46:00,61.1,60.0,29.98,SW,218,3.0,6.0,95,0.00,,,1.65,weatherlink.com 1.10,2013-05-08 18:46:00,
2013-05-08 15:01:00,61.6,60.0,29.98,SW,219,2.0,4.0,94,0.00,,,1.65,weatherlink.com 1.10,2013-05-08 19:01:00,
2013-05-08 15:16:00,62.6,61.0,29.97,SW,226,1.0,2.0,94,0.00,,,1.65,weatherlink.com 1.10,2013-05-08 19:16:00,
2013-05-08 15:31:00,62.8,61.0,29.97,South,181,2.0,5.0,92,0.00,,,1.65,weatherlink.com 1.10,2013-05-08 19:31:00,
2013-05-08 15:47:00,63.0,60.0,29.97,South,176,1.0,4.0,91,0.00,,,1.65,weatherlink.com 1.10,2013-05-08 19:47:00,
2013-05-08 16:02:00,63.1,60.0,29.97,SSE,167,0.0,3.0,90,0.00,,,1.65,weatherlink.com 1.10,2013-05-08 20:02:00,
2013-05-08 16:17:00,63.3,60.0,29.97,South,187,0.0,3.0,90,0.00,,,1.65,weatherlink.com 1.10,2013-05-08 20:17:00,
2013-05-08 16:32:00,63.2,60.0,29.97,SSE,168,0.0,4.0,90,0.00,,,1.65,weatherlink.com 1.10,2013-05-08 20:32:00,
2013-05-08 16:47:00,63.1,60.0,29.96,SW,218,1.0,3.0,89,0.00,,,1.65,weatherlink.com 1.10,2013-05-08 20:47:00,
2013-05-08 17:02:00,62.7,60.0,29.96,SSW,207,0.0,2.0,90,0.00,,,1.65,weatherlink.com 1.10,2013-05-08 21:02:00,
2013-05-08 17:17:00,63.1,60.0,29.97,South,184,0.0,3.0,89,0.00,,,1.65,weatherlink.com 1.10,2013-05-08 21:17:00,
2013-05-08 17:32:00,63.1,60.0,29.96,South,176,2.0,3.0,90,0.00,,,1.65,weatherlink.com 1.10,2013-05-08 21:32:00,
2013-05-08 17:47:00,63.5,60.0,29.97,SW,215,0.0,4.0,88,0.00,,,1.65,weatherlink.com 1.10,2013-05-08 21:47:00,
2013-05-08 18:02:00,63.3,59.0,29.97,WSW,239,0.0,4.0,87,0.00,,,1.65,weatherlink.com 1.10,2013-05-08 22:02:00,
2013-05-08 18:17:00,62.5,57.0,29.97,South,178,1.0,8.0,83,0.00,,,1.65,weatherlink.com 1.10,2013-05-08 22:17:00,
2013-05-08 18:32:00,61.0,56.0,29.97,South,187,1.0,6.0,84,0.00,,,1.65,weatherlink.com 1.10,2013-05-08 22:32:00,
2013-05-08 18:47:00,60.6,55.0,29.97,NW,321,1.0,4.0,83,0.00,,,1.65,weatherlink.com 1.10,2013-05-08 22:47:00,
2013-05-08 19:02:00,60.1,55.0,29.97,SSW,194,0.0,6.0,83,0.00,,,1.65,weatherlink.com 1.10,2013-05-08 23:02:00,
2013-05-08 19:17:00,60.0,54.0,29.97,SSW,212,2.0,4.0,81,0.00,,,1.65,weatherlink.com 1.10,2013-05-08 23:17:00,
2013-05-08 19:32:00,59.8,54.0,29.97,SSW,207,0.0,1.0,81,0.00,,,1.65,weatherlink.com 1.10,2013-05-08 23:32:00,
2013-05-08 19:47:00,59.7,54.0,29.98,South,169,0.0,3.0,81,0.00,,,1.65,weatherlink.com 1.10,2013-05-08 23:47:00,
2013-05-08 20:02:00,59.5,53.0,29.98,SSW,200,0.0,3.0,80,0.00,,,1.65,weatherlink.com 1.10,2013-05-09 00:02:00,
2013-05-08 20:17:00,59.1,53.0,29.98,North,4,0.0,3.0,81,0.00,,,1.65,weatherlink.com 1.10,2013-05-09 00:17:00,
2013-05-08 20:32:00,58.9,53.0,29.99,SW,215,0.0,4.0,82,0.00,,,1.65,weatherlink.com 1.10,2013-05-09 00:32:00,
2013-05-08 20:47:00,58.6,54.0,29.99,SSE,151,2.0,5.0,83,0.00,,,1.65,weatherlink.com 1.10,2013-05-09 00:47:00,
2013-05-08 21:02:00,58.3,54.0,30.00,South,173,2.0,4.0,84,0.00,,,1.65,weatherlink.com 1.10,2013-05-09 01:02:00,
2013-05-08 21:17:00,58.0,54.0,30.00,South,191,0.0,1.0,85,0.00,,,1.65,weatherlink.com 1.10,2013-05-09 01:17:00,
2013-05-08 21:32:00,57.9,54.0,30.00,South,187,0.0,3.0,85,0.00,,,1.65,weatherlink.com 1.10,2013-05-09 01:32:00,
2013-05-08 21:47:00,57.9,54.0,30.00,South,190,0.0,3.0,86,0.00,,,1.65,weatherlink.com 1.10,2013-05-09 01:47:00,
2013-05-08 22:02:00,57.8,54.0,30.00,SW,214,0.0,1.0,86,0.00,,,1.65,weatherlink.com 1.10,2013-05-09 02:02:00,
2013-05-08 22:17:00,57.4,53.0,30.00,SSW,212,0.0,0.0,86,0.00,,,1.65,weatherlink.com 1.10,2013-05-09 02:17:00,
2013-05-08 22:32:00,57.1,53.0,30.00,SSW,213,0.0,1.0,86,0.00,,,1.65,weatherlink.com 1.10,2013-05-09 02:32:00,
2013-05-08 22:47:00,56.9,53.0,30.00,SSW,212,0.0,0.0,86,0.00,,,1.65,weatherlink.com 1.10,2013-05-09 02:47:00,
2013-05-08 23:02:00,56.3,53.0,30.00,SSW,212,0.0,0.0,87,0.00,,,1.65,weatherlink.com 1.10,2013-05-09 03:02:00,
2013-05-08 23:17:00,56.0,52.0,29.99,SSW,212,0.0,0.0,87,0.00,,,1.65,weatherlink.com 1.10,2013-05-09 03:17:00,
2013-05-08 23:32:00,55.5,52.0,29.99,SSW,212,0.0,0.0,88,0.00,,,1.65,weatherlink.com 1.10,2013-05-09 03:32:00,
2013-05-08 23:47:00,55.1,52.0,29.99,SSW,212,0.0,0.0,89,0.00,,,1.65,weatherlink.com 1.10,2013-05-09 03:47:00,